sensor_id;sensor_type;location;lat;lon;timestamp;P1;durP1;ratioP1;P2;durP2;ratioP2
57297;SDS011;43147;50.972;18.210;2023-02-18T00:02:03;5.70;;;2.10;;
57297;SDS011;43147;50.972;18.210;2023-02-18T00:04:29;1.20;;;0.90;;
57297;SDS011;43147;50.972;18.210;2023-02-18T00:06:54;2.40;;;1.30;;
57297;SDS011;43147;50.972;18.210;2023-02-18T00:09:20;5.40;;;2.20;;
57297;SDS011;43147;50.972;18.210;2023-02-18T00:11:46;3.60;;;1.60;;
57297;SDS011;43147;50.972;18.210;2023-02-18T00:14:12;8.00;;;2.60;;
57297;SDS011;43147;50.972;18.210;2023-02-18T00:16:40;8.20;;;2.60;;
57297;SDS011;43147;50.972;18.210;2023-02-18T00:19:07;3.30;;;1.80;;
57297;SDS011;43147;50.972;18.210;2023-02-18T00:21:35;4.40;;;1.70;;
57297;SDS011;43147;50.972;18.210;2023-02-18T00:24:01;5.50;;;1.80;;
57297;SDS011;43147;50.972;18.210;2023-02-18T00:26:28;1.30;;;0.80;;
57297;SDS011;43147;50.972;18.210;2023-02-18T00:28:53;2.30;;;1.20;;
57297;SDS011;43147;50.972;18.210;2023-02-18T00:31:21;2.90;;;0.90;;
57297;SDS011;43147;50.972;18.210;2023-02-18T00:33:48;5.00;;;1.70;;
57297;SDS011;43147;50.972;18.210;2023-02-18T00:36:15;6.80;;;1.30;;
57297;SDS011;43147;50.972;18.210;2023-02-18T00:38:47;1.80;;;0.90;;
57297;SDS011;43147;50.972;18.210;2023-02-18T00:41:15;3.70;;;0.90;;
57297;SDS011;43147;50.972;18.210;2023-02-18T00:43:41;2.00;;;1.10;;
57297;SDS011;43147;50.972;18.210;2023-02-18T00:46:08;2.40;;;1.00;;
57297;SDS011;43147;50.972;18.210;2023-02-18T00:48:34;3.10;;;1.10;;
57297;SDS011;43147;50.972;18.210;2023-02-18T00:51:00;2.10;;;0.70;;
57297;SDS011;43147;50.972;18.210;2023-02-18T00:53:27;4.20;;;1.40;;
57297;SDS011;43147;50.972;18.210;2023-02-18T00:55:53;2.70;;;1.30;;
57297;SDS011;43147;50.972;18.210;2023-02-18T00:58:19;1.20;;;0.80;;
57297;SDS011;43147;50.972;18.210;2023-02-18T01:00:44;4.90;;;1.00;;
57297;SDS011;43147;50.972;18.210;2023-02-18T01:03:10;2.20;;;0.90;;
57297;SDS011;43147;50.972;18.210;2023-02-18T01:05:37;1.70;;;0.90;;
57297;SDS011;43147;50.972;18.210;2023-02-18T01:08:03;3.60;;;1.20;;
57297;SDS011;43147;50.972;18.210;2023-02-18T01:10:29;2.70;;;1.10;;
57297;SDS011;43147;50.972;18.210;2023-02-18T01:12:55;6.80;;;1.80;;
57297;SDS011;43147;50.972;18.210;2023-02-18T01:15:21;3.40;;;1.10;;
57297;SDS011;43147;50.972;18.210;2023-02-18T01:17:47;4.50;;;1.00;;
57297;SDS011;43147;50.972;18.210;2023-02-18T01:20:13;3.20;;;1.30;;
57297;SDS011;43147;50.972;18.210;2023-02-18T01:22:39;2.50;;;1.20;;
57297;SDS011;43147;50.972;18.210;2023-02-18T01:25:05;2.40;;;1.40;;
57297;SDS011;43147;50.972;18.210;2023-02-18T01:27:32;3.70;;;2.00;;
57297;SDS011;43147;50.972;18.210;2023-02-18T01:29:58;3.60;;;1.30;;
57297;SDS011;43147;50.972;18.210;2023-02-18T01:32:23;6.80;;;1.90;;
57297;SDS011;43147;50.972;18.210;2023-02-18T01:34:49;3.60;;;1.40;;
57297;SDS011;43147;50.972;18.210;2023-02-18T01:37:14;2.20;;;1.20;;
57297;SDS011;43147;50.972;18.210;2023-02-18T01:39:40;2.30;;;1.00;;
57297;SDS011;43147;50.972;18.210;2023-02-18T01:42:05;2.50;;;1.50;;
57297;SDS011;43147;50.972;18.210;2023-02-18T01:44:32;1.60;;;0.70;;
57297;SDS011;43147;50.972;18.210;2023-02-18T01:46:58;1.40;;;0.80;;
57297;SDS011;43147;50.972;18.210;2023-02-18T01:49:27;4.00;;;1.00;;
57297;SDS011;43147;50.972;18.210;2023-02-18T01:51:58;4.30;;;1.00;;
57297;SDS011;43147;50.972;18.210;2023-02-18T01:56:54;1.90;;;0.80;;
57297;SDS011;43147;50.972;18.210;2023-02-18T01:59:28;2.20;;;0.80;;
57297;SDS011;43147;50.972;18.210;2023-02-18T02:01:59;3.60;;;0.90;;
57297;SDS011;43147;50.972;18.210;2023-02-18T02:04:24;2.50;;;1.10;;
57297;SDS011;43147;50.972;18.210;2023-02-18T02:06:50;2.10;;;0.90;;
57297;SDS011;43147;50.972;18.210;2023-02-18T02:09:16;0.90;;;0.70;;
57297;SDS011;43147;50.972;18.210;2023-02-18T02:12:01;1.20;;;0.70;;
57297;SDS011;43147;50.972;18.210;2023-02-18T02:25:18;2.70;;;0.80;;
57297;SDS011;43147;50.972;18.210;2023-02-18T02:39:37;0.70;;;0.60;;
57297;SDS011;43147;50.972;18.210;2023-02-18T02:42:25;1.50;;;0.50;;
57297;SDS011;43147;50.972;18.210;2023-02-18T02:45:05;1.80;;;0.70;;
57297;SDS011;43147;50.972;18.210;2023-02-18T02:47:48;2.50;;;0.90;;
57297;SDS011;43147;50.972;18.210;2023-02-18T02:50:20;3.80;;;0.70;;
57297;SDS011;43147;50.972;18.210;2023-02-18T02:52:55;2.10;;;0.70;;
57297;SDS011;43147;50.972;18.210;2023-02-18T02:55:23;3.90;;;0.90;;
57297;SDS011;43147;50.972;18.210;2023-02-18T02:57:50;2.50;;;1.40;;
57297;SDS011;43147;50.972;18.210;2023-02-18T03:00:19;2.70;;;0.60;;
57297;SDS011;43147;50.972;18.210;2023-02-18T03:08:04;1.70;;;0.70;;
57297;SDS011;43147;50.972;18.210;2023-02-18T03:13:38;2.50;;;0.80;;
57297;SDS011;43147;50.972;18.210;2023-02-18T03:16:29;1.60;;;1.00;;
57297;SDS011;43147;50.972;18.210;2023-02-18T03:19:02;4.40;;;0.90;;
57297;SDS011;43147;50.972;18.210;2023-02-18T03:22:06;6.00;;;0.90;;
57297;SDS011;43147;50.972;18.210;2023-02-18T03:24:52;1.20;;;0.80;;
57297;SDS011;43147;50.972;18.210;2023-02-18T03:29:51;5.70;;;1.30;;
57297;SDS011;43147;50.972;18.210;2023-02-18T03:32:21;2.50;;;1.20;;
57297;SDS011;43147;50.972;18.210;2023-02-18T03:34:50;4.50;;;1.00;;
57297;SDS011;43147;50.972;18.210;2023-02-18T03:37:20;3.20;;;0.90;;
57297;SDS011;43147;50.972;18.210;2023-02-18T03:39:48;5.50;;;0.90;;
57297;SDS011;43147;50.972;18.210;2023-02-18T03:42:16;1.20;;;0.80;;
57297;SDS011;43147;50.972;18.210;2023-02-18T03:44:43;2.50;;;0.90;;
57297;SDS011;43147;50.972;18.210;2023-02-18T03:47:09;1.20;;;0.70;;
57297;SDS011;43147;50.972;18.210;2023-02-18T03:49:36;1.60;;;1.00;;
57297;SDS011;43147;50.972;18.210;2023-02-18T03:52:01;4.90;;;0.80;;
57297;SDS011;43147;50.972;18.210;2023-02-18T03:54:27;2.90;;;0.80;;
57297;SDS011;43147;50.972;18.210;2023-02-18T03:56:52;1.30;;;0.70;;
57297;SDS011;43147;50.972;18.210;2023-02-18T03:59:18;1.90;;;0.90;;
57297;SDS011;43147;50.972;18.210;2023-02-18T04:01:44;1.00;;;0.70;;
57297;SDS011;43147;50.972;18.210;2023-02-18T04:04:09;2.40;;;0.80;;
57297;SDS011;43147;50.972;18.210;2023-02-18T04:06:35;2.50;;;1.00;;
57297;SDS011;43147;50.972;18.210;2023-02-18T04:09:01;3.80;;;0.80;;
57297;SDS011;43147;50.972;18.210;2023-02-18T04:11:39;3.60;;;1.00;;
57297;SDS011;43147;50.972;18.210;2023-02-18T04:14:07;3.60;;;0.90;;
57297;SDS011;43147;50.972;18.210;2023-02-18T04:16:33;7.20;;;1.10;;
57297;SDS011;43147;50.972;18.210;2023-02-18T04:18:59;4.50;;;1.00;;
57297;SDS011;43147;50.972;18.210;2023-02-18T04:21:25;4.40;;;1.00;;
57297;SDS011;43147;50.972;18.210;2023-02-18T04:23:50;2.30;;;1.00;;
57297;SDS011;43147;50.972;18.210;2023-02-18T04:26:16;2.90;;;1.30;;
57297;SDS011;43147;50.972;18.210;2023-02-18T04:28:41;3.10;;;1.30;;
57297;SDS011;43147;50.972;18.210;2023-02-18T04:31:07;3.90;;;0.80;;
57297;SDS011;43147;50.972;18.210;2023-02-18T04:33:33;3.00;;;0.80;;
57297;SDS011;43147;50.972;18.210;2023-02-18T04:35:58;0.80;;;0.60;;
57297;SDS011;43147;50.972;18.210;2023-02-18T04:38:24;5.60;;;0.90;;
57297;SDS011;43147;50.972;18.210;2023-02-18T04:40:49;1.90;;;1.00;;
57297;SDS011;43147;50.972;18.210;2023-02-18T04:43:15;3.10;;;0.80;;
57297;SDS011;43147;50.972;18.210;2023-02-18T04:45:41;1.90;;;0.50;;
57297;SDS011;43147;50.972;18.210;2023-02-18T04:48:06;1.90;;;0.90;;
57297;SDS011;43147;50.972;18.210;2023-02-18T04:50:32;2.70;;;0.60;;
57297;SDS011;43147;50.972;18.210;2023-02-18T04:52:58;3.80;;;0.90;;
57297;SDS011;43147;50.972;18.210;2023-02-18T04:55:24;4.50;;;0.80;;
57297;SDS011;43147;50.972;18.210;2023-02-18T04:57:49;1.50;;;1.00;;
57297;SDS011;43147;50.972;18.210;2023-02-18T05:00:16;2.40;;;0.80;;
57297;SDS011;43147;50.972;18.210;2023-02-18T05:02:42;0.80;;;0.60;;
57297;SDS011;43147;50.972;18.210;2023-02-18T05:05:09;3.50;;;0.90;;
57297;SDS011;43147;50.972;18.210;2023-02-18T05:07:34;3.30;;;0.80;;
57297;SDS011;43147;50.972;18.210;2023-02-18T05:10:01;1.30;;;0.70;;
57297;SDS011;43147;50.972;18.210;2023-02-18T05:12:27;1.80;;;1.00;;
57297;SDS011;43147;50.972;18.210;2023-02-18T05:14:53;2.30;;;0.90;;
57297;SDS011;43147;50.972;18.210;2023-02-18T05:17:19;0.80;;;0.70;;
57297;SDS011;43147;50.972;18.210;2023-02-18T05:19:46;2.30;;;0.90;;
57297;SDS011;43147;50.972;18.210;2023-02-18T05:22:11;4.50;;;0.80;;
57297;SDS011;43147;50.972;18.210;2023-02-18T05:24:37;2.70;;;0.90;;
57297;SDS011;43147;50.972;18.210;2023-02-18T05:27:02;1.50;;;0.60;;
57297;SDS011;43147;50.972;18.210;2023-02-18T05:29:28;0.70;;;0.70;;
57297;SDS011;43147;50.972;18.210;2023-02-18T05:31:54;7.00;;;1.00;;
57297;SDS011;43147;50.972;18.210;2023-02-18T05:34:19;0.80;;;0.60;;
57297;SDS011;43147;50.972;18.210;2023-02-18T05:36:45;3.10;;;1.20;;
57297;SDS011;43147;50.972;18.210;2023-02-18T05:39:11;1.60;;;0.90;;
57297;SDS011;43147;50.972;18.210;2023-02-18T05:41:36;2.40;;;0.90;;
57297;SDS011;43147;50.972;18.210;2023-02-18T05:44:02;4.90;;;3.10;;
57297;SDS011;43147;50.972;18.210;2023-02-18T05:46:47;4.20;;;1.60;;
57297;SDS011;43147;50.972;18.210;2023-02-18T05:49:13;4.80;;;1.50;;
57297;SDS011;43147;50.972;18.210;2023-02-18T05:51:38;3.60;;;1.70;;
57297;SDS011;43147;50.972;18.210;2023-02-18T05:54:04;2.60;;;1.10;;
57297;SDS011;43147;50.972;18.210;2023-02-18T05:56:30;1.70;;;1.00;;
57297;SDS011;43147;50.972;18.210;2023-02-18T05:58:55;2.60;;;1.00;;
57297;SDS011;43147;50.972;18.210;2023-02-18T06:01:21;2.30;;;0.90;;
57297;SDS011;43147;50.972;18.210;2023-02-18T06:03:46;3.20;;;1.00;;
57297;SDS011;43147;50.972;18.210;2023-02-18T06:06:12;4.80;;;2.30;;
57297;SDS011;43147;50.972;18.210;2023-02-18T06:08:37;4.90;;;1.30;;
57297;SDS011;43147;50.972;18.210;2023-02-18T06:11:03;3.50;;;0.80;;
57297;SDS011;43147;50.972;18.210;2023-02-18T06:13:29;3.20;;;1.50;;
57297;SDS011;43147;50.972;18.210;2023-02-18T06:15:55;2.10;;;1.40;;
57297;SDS011;43147;50.972;18.210;2023-02-18T06:18:21;2.40;;;1.40;;
57297;SDS011;43147;50.972;18.210;2023-02-18T06:20:47;3.70;;;1.00;;
57297;SDS011;43147;50.972;18.210;2023-02-18T06:23:13;2.70;;;1.10;;
57297;SDS011;43147;50.972;18.210;2023-02-18T06:25:39;4.00;;;1.40;;
57297;SDS011;43147;50.972;18.210;2023-02-18T06:28:05;5.40;;;1.80;;
57297;SDS011;43147;50.972;18.210;2023-02-18T06:30:31;2.50;;;1.10;;
57297;SDS011;43147;50.972;18.210;2023-02-18T06:32:56;2.90;;;1.40;;
57297;SDS011;43147;50.972;18.210;2023-02-18T06:35:22;1.80;;;1.10;;
57297;SDS011;43147;50.972;18.210;2023-02-18T06:37:47;3.80;;;1.40;;
57297;SDS011;43147;50.972;18.210;2023-02-18T06:40:13;4.50;;;1.00;;
57297;SDS011;43147;50.972;18.210;2023-02-18T06:42:39;0.90;;;0.70;;
57297;SDS011;43147;50.972;18.210;2023-02-18T06:45:04;3.10;;;1.60;;
57297;SDS011;43147;50.972;18.210;2023-02-18T06:47:33;7.50;;;1.70;;
57297;SDS011;43147;50.972;18.210;2023-02-18T06:49:59;2.40;;;1.20;;
57297;SDS011;43147;50.972;18.210;2023-02-18T06:52:24;5.90;;;1.30;;
57297;SDS011;43147;50.972;18.210;2023-02-18T06:54:50;1.60;;;1.20;;
57297;SDS011;43147;50.972;18.210;2023-02-18T06:57:16;4.30;;;1.10;;
57297;SDS011;43147;50.972;18.210;2023-02-18T06:59:41;2.00;;;1.50;;
57297;SDS011;43147;50.972;18.210;2023-02-18T07:02:09;2.60;;;0.90;;
57297;SDS011;43147;50.972;18.210;2023-02-18T07:04:36;1.80;;;0.70;;
57297;SDS011;43147;50.972;18.210;2023-02-18T07:07:02;2.50;;;1.20;;
57297;SDS011;43147;50.972;18.210;2023-02-18T07:09:27;3.70;;;1.40;;
57297;SDS011;43147;50.972;18.210;2023-02-18T07:11:53;4.30;;;1.30;;
57297;SDS011;43147;50.972;18.210;2023-02-18T07:14:18;5.80;;;1.40;;
57297;SDS011;43147;50.972;18.210;2023-02-18T07:16:44;3.40;;;1.50;;
57297;SDS011;43147;50.972;18.210;2023-02-18T07:19:10;5.60;;;1.60;;
57297;SDS011;43147;50.972;18.210;2023-02-18T07:21:35;3.20;;;1.60;;
57297;SDS011;43147;50.972;18.210;2023-02-18T07:24:01;4.80;;;1.70;;
57297;SDS011;43147;50.972;18.210;2023-02-18T07:26:26;7.30;;;1.20;;
57297;SDS011;43147;50.972;18.210;2023-02-18T07:28:52;6.50;;;1.70;;
57297;SDS011;43147;50.972;18.210;2023-02-18T07:31:18;7.30;;;1.30;;
57297;SDS011;43147;50.972;18.210;2023-02-18T07:33:43;3.30;;;1.60;;
57297;SDS011;43147;50.972;18.210;2023-02-18T07:36:09;7.10;;;2.30;;
57297;SDS011;43147;50.972;18.210;2023-02-18T07:38:34;5.40;;;1.70;;
57297;SDS011;43147;50.972;18.210;2023-02-18T07:41:00;8.00;;;2.20;;
57297;SDS011;43147;50.972;18.210;2023-02-18T07:43:25;5.90;;;1.80;;
57297;SDS011;43147;50.972;18.210;2023-02-18T07:45:51;4.40;;;2.00;;
57297;SDS011;43147;50.972;18.210;2023-02-18T07:48:17;3.60;;;1.50;;
57297;SDS011;43147;50.972;18.210;2023-02-18T07:50:43;3.10;;;1.50;;
57297;SDS011;43147;50.972;18.210;2023-02-18T07:53:10;4.60;;;1.50;;
57297;SDS011;43147;50.972;18.210;2023-02-18T07:55:36;4.90;;;2.10;;
57297;SDS011;43147;50.972;18.210;2023-02-18T07:58:15;4.30;;;1.80;;
57297;SDS011;43147;50.972;18.210;2023-02-18T08:00:42;4.50;;;1.50;;
57297;SDS011;43147;50.972;18.210;2023-02-18T08:03:08;1.70;;;1.10;;
57297;SDS011;43147;50.972;18.210;2023-02-18T08:05:33;5.90;;;2.20;;
57297;SDS011;43147;50.972;18.210;2023-02-18T08:07:59;4.70;;;2.50;;
57297;SDS011;43147;50.972;18.210;2023-02-18T08:10:24;4.00;;;1.80;;
57297;SDS011;43147;50.972;18.210;2023-02-18T08:12:50;6.50;;;2.30;;
57297;SDS011;43147;50.972;18.210;2023-02-18T08:15:15;5.70;;;2.50;;
57297;SDS011;43147;50.972;18.210;2023-02-18T08:17:41;5.30;;;2.10;;
57297;SDS011;43147;50.972;18.210;2023-02-18T08:20:07;3.80;;;1.80;;
57297;SDS011;43147;50.972;18.210;2023-02-18T08:22:33;5.60;;;2.10;;
57297;SDS011;43147;50.972;18.210;2023-02-18T08:24:58;3.20;;;1.30;;
57297;SDS011;43147;50.972;18.210;2023-02-18T08:27:24;4.20;;;1.40;;
57297;SDS011;43147;50.972;18.210;2023-02-18T08:29:50;6.20;;;1.20;;
57297;SDS011;43147;50.972;18.210;2023-02-18T08:32:16;3.80;;;1.40;;
57297;SDS011;43147;50.972;18.210;2023-02-18T08:34:41;2.80;;;1.60;;
57297;SDS011;43147;50.972;18.210;2023-02-18T08:37:07;3.20;;;1.40;;
57297;SDS011;43147;50.972;18.210;2023-02-18T08:39:33;3.00;;;1.20;;
57297;SDS011;43147;50.972;18.210;2023-02-18T08:41:59;4.70;;;1.20;;
57297;SDS011;43147;50.972;18.210;2023-02-18T08:44:25;4.80;;;1.50;;
57297;SDS011;43147;50.972;18.210;2023-02-18T08:46:51;5.70;;;1.70;;
57297;SDS011;43147;50.972;18.210;2023-02-18T08:49:17;3.80;;;1.40;;
57297;SDS011;43147;50.972;18.210;2023-02-18T08:51:48;3.60;;;1.20;;
57297;SDS011;43147;50.972;18.210;2023-02-18T08:54:15;3.10;;;1.60;;
57297;SDS011;43147;50.972;18.210;2023-02-18T08:56:41;5.70;;;1.90;;
57297;SDS011;43147;50.972;18.210;2023-02-18T08:59:10;2.60;;;1.40;;
57297;SDS011;43147;50.972;18.210;2023-02-18T09:01:35;3.50;;;1.10;;
57297;SDS011;43147;50.972;18.210;2023-02-18T09:04:01;5.90;;;1.90;;
57297;SDS011;43147;50.972;18.210;2023-02-18T09:06:27;2.50;;;1.20;;
57297;SDS011;43147;50.972;18.210;2023-02-18T09:08:52;3.90;;;1.90;;
57297;SDS011;43147;50.972;18.210;2023-02-18T09:11:18;4.10;;;1.50;;
57297;SDS011;43147;50.972;18.210;2023-02-18T09:13:44;4.10;;;2.00;;
57297;SDS011;43147;50.972;18.210;2023-02-18T09:16:11;3.30;;;1.20;;
57297;SDS011;43147;50.972;18.210;2023-02-18T09:18:39;4.80;;;1.70;;
57297;SDS011;43147;50.972;18.210;2023-02-18T09:21:06;4.20;;;2.00;;
57297;SDS011;43147;50.972;18.210;2023-02-18T09:23:33;4.30;;;2.10;;
57297;SDS011;43147;50.972;18.210;2023-02-18T09:26:02;4.90;;;1.50;;
57297;SDS011;43147;50.972;18.210;2023-02-18T09:28:29;8.90;;;1.80;;
57297;SDS011;43147;50.972;18.210;2023-02-18T09:30:54;3.60;;;1.50;;
57297;SDS011;43147;50.972;18.210;2023-02-18T09:33:20;4.50;;;1.80;;
57297;SDS011;43147;50.972;18.210;2023-02-18T09:35:46;2.90;;;1.20;;
57297;SDS011;43147;50.972;18.210;2023-02-18T09:38:13;3.40;;;1.30;;
57297;SDS011;43147;50.972;18.210;2023-02-18T09:40:42;7.10;;;1.70;;
57297;SDS011;43147;50.972;18.210;2023-02-18T09:43:25;5.90;;;1.60;;
57297;SDS011;43147;50.972;18.210;2023-02-18T09:45:53;3.50;;;1.50;;
57297;SDS011;43147;50.972;18.210;2023-02-18T09:48:21;4.20;;;1.60;;
57297;SDS011;43147;50.972;18.210;2023-02-18T09:50:51;4.30;;;1.70;;
57297;SDS011;43147;50.972;18.210;2023-02-18T09:53:17;5.80;;;2.60;;
57297;SDS011;43147;50.972;18.210;2023-02-18T09:55:43;4.50;;;1.40;;
57297;SDS011;43147;50.972;18.210;2023-02-18T09:58:18;4.10;;;1.80;;
57297;SDS011;43147;50.972;18.210;2023-02-18T10:00:53;3.10;;;1.30;;
57297;SDS011;43147;50.972;18.210;2023-02-18T10:03:24;4.30;;;1.70;;
57297;SDS011;43147;50.972;18.210;2023-02-18T10:06:11;2.60;;;1.40;;
57297;SDS011;43147;50.972;18.210;2023-02-18T10:08:45;5.30;;;1.40;;
57297;SDS011;43147;50.972;18.210;2023-02-18T10:11:14;4.10;;;1.80;;
57297;SDS011;43147;50.972;18.210;2023-02-18T10:13:41;2.90;;;1.30;;
57297;SDS011;43147;50.972;18.210;2023-02-18T10:16:08;2.40;;;1.50;;
57297;SDS011;43147;50.972;18.210;2023-02-18T10:18:41;4.70;;;1.80;;
57297;SDS011;43147;50.972;18.210;2023-02-18T10:21:17;3.70;;;1.10;;
57297;SDS011;43147;50.972;18.210;2023-02-18T10:24:11;3.10;;;1.60;;
57297;SDS011;43147;50.972;18.210;2023-02-18T10:26:44;4.10;;;1.70;;
57297;SDS011;43147;50.972;18.210;2023-02-18T10:29:16;3.30;;;1.50;;
57297;SDS011;43147;50.972;18.210;2023-02-18T10:31:44;12.00;;;2.40;;
57297;SDS011;43147;50.972;18.210;2023-02-18T10:39:43;5.00;;;1.80;;
57297;SDS011;43147;50.972;18.210;2023-02-18T10:50:27;3.60;;;1.80;;
57297;SDS011;43147;50.972;18.210;2023-02-18T10:53:12;2.70;;;1.30;;
57297;SDS011;43147;50.972;18.210;2023-02-18T10:55:42;2.10;;;1.30;;
57297;SDS011;43147;50.972;18.210;2023-02-18T11:01:05;4.80;;;1.60;;
57297;SDS011;43147;50.972;18.210;2023-02-18T11:08:50;5.30;;;2.40;;
57297;SDS011;43147;50.972;18.210;2023-02-18T11:11:25;7.00;;;2.50;;
57297;SDS011;43147;50.972;18.210;2023-02-18T11:13:54;7.60;;;2.30;;
57297;SDS011;43147;50.972;18.210;2023-02-18T11:16:45;3.20;;;2.00;;
57297;SDS011;43147;50.972;18.210;2023-02-18T11:19:32;6.10;;;2.20;;
57297;SDS011;43147;50.972;18.210;2023-02-18T11:24:43;5.20;;;2.60;;
57297;SDS011;43147;50.972;18.210;2023-02-18T11:27:22;4.70;;;2.20;;
57297;SDS011;43147;50.972;18.210;2023-02-18T11:29:50;8.20;;;3.40;;
57297;SDS011;43147;50.972;18.210;2023-02-18T11:32:20;6.60;;;3.20;;
57297;SDS011;43147;50.972;18.210;2023-02-18T11:34:46;4.50;;;2.30;;
57297;SDS011;43147;50.972;18.210;2023-02-18T11:37:17;5.90;;;2.90;;
57297;SDS011;43147;50.972;18.210;2023-02-18T11:39:44;8.00;;;3.10;;
57297;SDS011;43147;50.972;18.210;2023-02-18T11:42:12;7.90;;;2.70;;
57297;SDS011;43147;50.972;18.210;2023-02-18T11:44:49;6.70;;;2.70;;
57297;SDS011;43147;50.972;18.210;2023-02-18T11:49:44;6.00;;;2.40;;
57297;SDS011;43147;50.972;18.210;2023-02-18T11:52:44;5.80;;;1.90;;
57297;SDS011;43147;50.972;18.210;2023-02-18T11:58:05;9.00;;;3.10;;
57297;SDS011;43147;50.972;18.210;2023-02-18T12:06:13;8.80;;;4.80;;
57297;SDS011;43147;50.972;18.210;2023-02-18T12:08:46;13.10;;;5.40;;
57297;SDS011;43147;50.972;18.210;2023-02-18T12:11:14;10.00;;;3.40;;
57297;SDS011;43147;50.972;18.210;2023-02-18T12:13:52;8.90;;;4.50;;
57297;SDS011;43147;50.972;18.210;2023-02-18T12:16:23;13.70;;;6.60;;
57297;SDS011;43147;50.972;18.210;2023-02-18T12:19:12;21.30;;;8.00;;
57297;SDS011;43147;50.972;18.210;2023-02-18T12:22:05;15.00;;;5.90;;
57297;SDS011;43147;50.972;18.210;2023-02-18T12:24:53;11.30;;;3.90;;
57297;SDS011;43147;50.972;18.210;2023-02-18T12:27:33;48.80;;;18.00;;
57297;SDS011;43147;50.972;18.210;2023-02-18T12:32:54;23.60;;;9.10;;
57297;SDS011;43147;50.972;18.210;2023-02-18T12:35:48;11.60;;;6.70;;
57297;SDS011;43147;50.972;18.210;2023-02-18T12:43:53;10.80;;;5.50;;
57297;SDS011;43147;50.972;18.210;2023-02-18T12:49:39;11.90;;;5.70;;
57297;SDS011;43147;50.972;18.210;2023-02-18T12:52:20;23.60;;;7.40;;
57297;SDS011;43147;50.972;18.210;2023-02-18T13:03:08;14.00;;;7.00;;
57297;SDS011;43147;50.972;18.210;2023-02-18T13:06:00;13.40;;;6.20;;
57297;SDS011;43147;50.972;18.210;2023-02-18T13:08:48;11.60;;;5.60;;
57297;SDS011;43147;50.972;18.210;2023-02-18T13:11:41;9.70;;;4.30;;
57297;SDS011;43147;50.972;18.210;2023-02-18T13:14:28;10.90;;;4.10;;
57297;SDS011;43147;50.972;18.210;2023-02-18T13:16:57;7.70;;;3.80;;
57297;SDS011;43147;50.972;18.210;2023-02-18T13:19:32;9.90;;;4.80;;
57297;SDS011;43147;50.972;18.210;2023-02-18T13:22:03;9.50;;;4.70;;
57297;SDS011;43147;50.972;18.210;2023-02-18T13:24:32;12.30;;;5.00;;
57297;SDS011;43147;50.972;18.210;2023-02-18T13:40:15;7.40;;;3.90;;
57297;SDS011;43147;50.972;18.210;2023-02-18T13:42:43;9.70;;;4.50;;
57297;SDS011;43147;50.972;18.210;2023-02-18T13:45:21;8.90;;;3.90;;
57297;SDS011;43147;50.972;18.210;2023-02-18T13:47:49;8.60;;;4.40;;
57297;SDS011;43147;50.972;18.210;2023-02-18T13:50:20;7.10;;;5.30;;
57297;SDS011;43147;50.972;18.210;2023-02-18T13:55:37;8.30;;;6.00;;
57297;SDS011;43147;50.972;18.210;2023-02-18T13:58:10;13.60;;;6.70;;
57297;SDS011;43147;50.972;18.210;2023-02-18T14:00:39;12.90;;;5.90;;
57297;SDS011;43147;50.972;18.210;2023-02-18T14:27:39;11.80;;;6.30;;
57297;SDS011;43147;50.972;18.210;2023-02-18T14:30:19;12.00;;;5.80;;
57297;SDS011;43147;50.972;18.210;2023-02-18T14:32:51;6.90;;;5.10;;
57297;SDS011;43147;50.972;18.210;2023-02-18T14:35:25;6.10;;;3.70;;
57297;SDS011;43147;50.972;18.210;2023-02-18T14:43:51;12.40;;;5.40;;
57297;SDS011;43147;50.972;18.210;2023-02-18T14:49:20;15.70;;;7.00;;
57297;SDS011;43147;50.972;18.210;2023-02-18T14:51:52;57.20;;;18.00;;
57297;SDS011;43147;50.972;18.210;2023-02-18T14:54:18;13.50;;;6.20;;
57297;SDS011;43147;50.972;18.210;2023-02-18T14:57:07;8.70;;;5.60;;
57297;SDS011;43147;50.972;18.210;2023-02-18T14:59:39;15.40;;;7.80;;
57297;SDS011;43147;50.972;18.210;2023-02-18T15:02:22;22.60;;;9.40;;
57297;SDS011;43147;50.972;18.210;2023-02-18T15:04:51;19.30;;;9.10;;
57297;SDS011;43147;50.972;18.210;2023-02-18T15:07:18;18.60;;;8.30;;
57297;SDS011;43147;50.972;18.210;2023-02-18T15:09:46;11.40;;;6.30;;
57297;SDS011;43147;50.972;18.210;2023-02-18T15:12:17;12.80;;;5.70;;
57297;SDS011;43147;50.972;18.210;2023-02-18T15:14:45;13.60;;;6.70;;
57297;SDS011;43147;50.972;18.210;2023-02-18T15:17:14;12.50;;;6.50;;
57297;SDS011;43147;50.972;18.210;2023-02-18T15:19:50;15.70;;;6.70;;
57297;SDS011;43147;50.972;18.210;2023-02-18T15:22:18;9.10;;;5.60;;
57297;SDS011;43147;50.972;18.210;2023-02-18T15:24:46;14.30;;;7.50;;
57297;SDS011;43147;50.972;18.210;2023-02-18T15:27:15;19.50;;;9.10;;
57297;SDS011;43147;50.972;18.210;2023-02-18T15:29:42;17.50;;;8.60;;
57297;SDS011;43147;50.972;18.210;2023-02-18T15:32:21;23.50;;;10.30;;
57297;SDS011;43147;50.972;18.210;2023-02-18T15:34:52;27.20;;;9.70;;
57297;SDS011;43147;50.972;18.210;2023-02-18T15:37:24;22.50;;;9.80;;
57297;SDS011;43147;50.972;18.210;2023-02-18T15:39:50;25.50;;;10.60;;
57297;SDS011;43147;50.972;18.210;2023-02-18T15:42:18;27.30;;;13.40;;
57297;SDS011;43147;50.972;18.210;2023-02-18T15:47:29;18.40;;;11.10;;
57297;SDS011;43147;50.972;18.210;2023-02-18T15:49:56;25.70;;;12.50;;
57297;SDS011;43147;50.972;18.210;2023-02-18T15:52:30;31.20;;;14.70;;
57297;SDS011;43147;50.972;18.210;2023-02-18T15:55:00;42.00;;;16.50;;
57297;SDS011;43147;50.972;18.210;2023-02-18T15:57:29;37.90;;;17.70;;
57297;SDS011;43147;50.972;18.210;2023-02-18T16:02:49;26.60;;;13.90;;
57297;SDS011;43147;50.972;18.210;2023-02-18T16:05:18;27.90;;;12.80;;
57297;SDS011;43147;50.972;18.210;2023-02-18T16:07:56;27.80;;;13.30;;
57297;SDS011;43147;50.972;18.210;2023-02-18T16:13:03;21.30;;;11.20;;
57297;SDS011;43147;50.972;18.210;2023-02-18T16:15:39;23.30;;;10.80;;
57297;SDS011;43147;50.972;18.210;2023-02-18T16:18:16;27.40;;;11.90;;
57297;SDS011;43147;50.972;18.210;2023-02-18T16:20:51;25.40;;;11.30;;
57297;SDS011;43147;50.972;18.210;2023-02-18T16:23:24;26.10;;;12.60;;
57297;SDS011;43147;50.972;18.210;2023-02-18T16:25:50;21.40;;;11.50;;
57297;SDS011;43147;50.972;18.210;2023-02-18T16:28:23;22.30;;;11.00;;
57297;SDS011;43147;50.972;18.210;2023-02-18T16:30:53;29.00;;;12.10;;
57297;SDS011;43147;50.972;18.210;2023-02-18T16:33:19;21.50;;;11.60;;
57297;SDS011;43147;50.972;18.210;2023-02-18T16:35:45;23.40;;;12.20;;
57297;SDS011;43147;50.972;18.210;2023-02-18T16:38:14;25.90;;;13.00;;
57297;SDS011;43147;50.972;18.210;2023-02-18T16:40:42;20.90;;;12.80;;
57297;SDS011;43147;50.972;18.210;2023-02-18T16:43:14;32.40;;;14.50;;
57297;SDS011;43147;50.972;18.210;2023-02-18T16:45:48;13.70;;;10.40;;
57297;SDS011;43147;50.972;18.210;2023-02-18T16:51:16;20.10;;;12.60;;
57297;SDS011;43147;50.972;18.210;2023-02-18T16:53:45;31.40;;;14.90;;
57297;SDS011;43147;50.972;18.210;2023-02-18T16:56:12;25.50;;;13.10;;
57297;SDS011;43147;50.972;18.210;2023-02-18T16:58:42;19.50;;;9.90;;
57297;SDS011;43147;50.972;18.210;2023-02-18T17:01:14;19.10;;;9.10;;
57297;SDS011;43147;50.972;18.210;2023-02-18T17:04:05;13.30;;;8.70;;
57297;SDS011;43147;50.972;18.210;2023-02-18T17:06:32;13.30;;;7.20;;
57297;SDS011;43147;50.972;18.210;2023-02-18T17:08:58;11.30;;;7.80;;
57297;SDS011;43147;50.972;18.210;2023-02-18T17:11:25;16.30;;;7.40;;
57297;SDS011;43147;50.972;18.210;2023-02-18T17:13:53;9.20;;;6.30;;
57297;SDS011;43147;50.972;18.210;2023-02-18T17:16:19;6.50;;;4.80;;